Time;durP1;ratioP1;P1;durP2;ratioP2;P2;SDS_P1;SDS_P2;PMS_P1;PMS_P2;Temp;Humidity;BMP_temperature;BMP_pressure;BME280_temperature;BME280_humidity;BME280_pressure;Samples;Min_cycle;Max_cycle;Signal;HPM_P1;HPM_P2
2022/11/28 06:56:59;;;;;;;2.95;2.10;;;;;;;;;;10585678;27;20529;-83
2022/11/28 07:02:02;;;;;;;3.58;2.80;;;;;;;;;;10580836;28;20127;-84
2022/11/28 07:07:03;;;;;;;4.00;2.47;;;;;;;;;;10580950;28;20024;-82
2022/11/28 07:12:04;;;;;;;4.15;3.33;;;;;;;;;;10585235;28;20058;-82
2022/11/28 07:17:05;;;;;;;;;;;;;;;;;;10583124;28;20044;-83
2022/11/28 07:22:06;;;;;;;5.88;4.25;;;;;;;;;;10582893;28;20286;-82
2022/11/28 07:27:07;;;;;;;3.92;2.55;;;;;;;;;;10581900;28;20055;-83
2022/11/28 07:32:12;;;;;;;5.13;3.70;;;;;;;;;;10586741;28;20091;-84
2022/11/28 07:37:14;;;;;;;2.95;2.53;;;;;;;;;;10608353;28;20044;-83
2022/11/28 07:42:15;;;;;;;4.97;3.83;;;;;;;;;;10609623;28;20184;-83
2022/11/28 07:47:16;;;;;;;5.97;4.50;;;;;;;;;;10603384;28;20094;-82
2022/11/28 07:52:18;;;;;;;3.42;2.95;;;;;;;;;;10596874;28;20051;-83
2022/11/28 07:57:19;;;;;;;13.55;12.07;;;;;;;;;;10581751;28;20031;-83
2022/11/28 08:02:20;;;;;;;;;;;;;;;;;;10587264;28;20081;-84
2022/11/28 08:07:21;;;;;;;3.10;2.45;;;;;;;;;;10564904;28;19904;-83
2022/11/28 08:12:22;;;;;;;;;;;;;;;;;;10556833;28;20118;-81
2022/11/28 08:17:23;;;;;;;16.27;4.57;;;;;;;;;;10552785;28;19908;-82
2022/11/28 08:22:24;;;;;;;;;;;;;;;;;;10550370;28;20078;-78
2022/11/28 08:27:25;;;;;;;9.57;3.80;;;;;;;;;;10549409;28;19911;-81
2022/11/28 08:32:29;;;;;;;7.32;3.50;;;;;;;;;;10552118;28;20020;-81
2022/11/28 08:37:30;;;;;;;9.85;4.32;;;;;;;;;;10550746;28;20024;-82
2022/11/28 08:42:31;;;;;;;;;;;;;;;;;;10550553;28;20107;-82
2022/11/28 08:47:32;;;;;;;6.43;3.80;;;;;;;;;;10547733;28;19910;-82
2022/11/28 08:52:33;;;;;;;5.70;3.67;;;;;;;;;;10549682;28;20115;-83
2022/11/28 08:57:34;;;;;;;6.10;3.55;;;;;;;;;;10549703;28;20032;-82
2022/11/28 09:02:35;;;;;;;4.28;3.40;;;;;;;;;;10549682;28;20123;-83
2022/11/28 09:07:36;;;;;;;5.88;3.45;;;;;;;;;;10549900;28;20035;-82
2022/11/28 09:12:37;;;;;;;6.88;3.88;;;;;;;;;;10546776;28;20111;-82
2022/11/28 09:17:39;;;;;;;6.57;3.42;;;;;;;;;;10545176;28;20115;-82
2022/11/28 09:22:42;;;;;;;6.30;3.83;;;;;;;;;;10546560;28;20028;-83
2022/11/28 09:27:43;;;;;;;5.28;4.00;;;;;;;;;;10549042;28;20385;-83
2022/11/28 09:32:47;;;;;;;3.83;3.33;;;;;;;;;;10551487;28;20085;-82
2022/11/28 09:37:48;;;;;;;5.25;3.67;;;;;;;;;;10563996;28;20028;-83
2022/11/28 09:42:49;;;;;;;5.13;3.47;;;;;;;;;;10548332;28;20028;-83
2022/11/28 09:47:50;;;;;;;;;;;;;;;;;;10550926;28;20061;-81
2022/11/28 09:53:00;;;;;;;4.72;3.40;;;;;;;;;;10551139;28;19916;-81
2022/11/28 09:58:05;;;;;;;7.50;3.47;;;;;;;;;;10549105;28;20032;-81
2022/11/28 10:03:09;;;;;;;5.18;3.60;;;;;;;;;;10548197;28;20024;-81
2022/11/28 10:08:19;;;;;;;5.55;4.10;;;;;;;;;;10549764;28;20102;-80
2022/11/28 10:13:26;;;;;;;7.05;4.00;;;;;;;;;;10552376;28;20096;-82
2022/11/28 10:18:27;;;;;;;4.10;3.20;;;;;;;;;;10557189;28;20024;-83
2022/11/28 10:23:45;;;;;;;5.70;3.53;;;;;;;;;;10558271;28;20024;-82
2022/11/28 10:28:49;;;;;;;5.22;3.65;;;;;;;;;;10549519;28;20020;-82
2022/11/28 10:33:57;;;;;;;4.72;3.53;;;;;;;;;;10556162;28;20089;-82
2022/11/28 10:39:02;;;;;;;17.67;11.88;;;;;;;;;;10564765;28;20028;-80
2022/11/28 10:44:33;;;;;;;4.00;3.22;;;;;;;;;;10547147;28;20059;-84
2022/11/28 10:50:01;;;;;;;5.60;3.45;;;;;;;;;;10532682;28;20036;-83
2022/11/28 10:55:02;;;;;;;6.65;4.38;;;;;;;;;;10465650;28;20401;-82
2022/11/28 11:00:07;;;;;;;4.20;3.22;;;;;;;;;;10552175;28;20108;-83
2022/11/28 11:05:12;;;;;;;4.68;3.25;;;;;;;;;;10552317;28;20042;-83
2022/11/28 11:10:16;;;;;;;6.78;3.80;;;;;;;;;;10552345;28;20080;-83
2022/11/28 11:15:49;;;;;;;6.25;4.70;;;;;;;;;;10551915;28;20023;-82
2022/11/28 11:21:19;;;;;;;4.95;3.75;;;;;;;;;;10555385;28;20059;-82
2022/11/28 11:26:23;;;;;;;5.05;3.80;;;;;;;;;;10555485;28;20031;-83
2022/11/28 11:31:30;;;;;;;4.68;3.25;;;;;;;;;;10554722;28;20032;-81
2022/11/28 11:36:33;;;;;;;5.93;3.67;;;;;;;;;;10563351;28;20024;-82
2022/11/28 11:41:34;;;;;;;4.80;3.50;;;;;;;;;;10572509;28;20024;-83
2022/11/28 11:46:49;;;;;;;5.18;3.95;;;;;;;;;;10571167;28;20031;-82
2022/11/28 11:51:55;;;;;;;7.15;4.30;;;;;;;;;;10566378;28;20027;-82
2022/11/28 11:56:57;;;;;;;4.68;3.50;;;;;;;;;;10563284;28;20032;-82
2022/11/28 12:02:21;;;;;;;5.05;3.30;;;;;;;;;;10564963;28;20062;-81
2022/11/28 12:07:52;;;;;;;5.65;4.15;;;;;;;;;;10515541;28;20107;-82
2022/11/28 12:12:53;;;;;;;4.35;3.72;;;;;;;;;;10543540;28;20497;-83
2022/11/28 12:18:00;;;;;;;7.53;4.30;;;;;;;;;;10566003;28;20020;-84
2022/11/28 12:23:07;;;;;;;7.63;3.90;;;;;;;;;;10557596;28;20102;-81
2022/11/28 12:28:30;;;;;;;5.53;3.70;;;;;;;;;;10555866;28;20020;-82
2022/11/28 12:33:38;;;;;;;5.95;4.03;;;;;;;;;;10554443;28;20507;-81
2022/11/28 12:38:48;;;;;;;5.13;3.60;;;;;;;;;;10564379;28;20024;-82
2022/11/28 12:44:07;;;;;;;5.57;3.73;;;;;;;;;;10580320;28;20028;-82
2022/11/28 12:49:08;;;;;;;7.32;3.50;;;;;;;;;;10574276;28;20079;-82
2022/11/28 12:54:29;;;;;;;5.80;3.50;;;;;;;;;;10559658;28;20032;-82
2022/11/28 12:59:30;;;;;;;;;;;;;;;;;;10567612;28;20031;-82
2022/11/28 13:04:49;;;;;;;4.93;3.60;;;;;;;;;;10561511;28;19908;-81
2022/11/28 13:10:14;;;;;;;4.95;3.53;;;;;;;;;;10557151;28;20057;-82
2022/11/28 13:15:18;;;;;;;4.45;3.45;;;;;;;;;;10510967;28;20042;-82
2022/11/28 13:20:19;;;;;;;5.80;3.75;;;;;;;;;;10559524;28;20044;-83
2022/11/28 13:25:43;;;;;;;14.13;10.43;;;;;;;;;;10558347;28;20024;-82
2022/11/28 13:36:37;;;;;;;4.95;3.90;;;;;;;;;;10558690;28;20024;-81
2022/11/28 13:41:44;;;;;;;4.18;3.10;;;;;;;;;;10558990;28;20031;-81
2022/11/28 13:46:46;;;;;;;6.18;3.95;;;;;;;;;;10563235;28;20535;-84
2022/11/28 13:51:47;;;;;;;5.10;3.63;;;;;;;;;;10560416;28;20016;-82
2022/11/28 13:57:08;;;;;;;7.13;5.45;;;;;;;;;;10565250;28;20043;-82
2022/11/28 14:02:32;;;;;;;5.10;3.55;;;;;;;;;;10557106;28;20035;-83
2022/11/28 14:07:34;;;;;;;7.00;5.65;;;;;;;;;;10545017;28;20052;-83
2022/11/28 14:12:41;;;;;;;5.38;4.03;;;;;;;;;;10561143;28;20078;-84
2022/11/28 14:17:45;;;;;;;7.18;4.00;;;;;;;;;;10548629;28;20529;-83
2022/11/28 14:22:46;;;;;;;7.30;4.50;;;;;;;;;;10559803;28;20101;-83
2022/11/28 14:27:47;;;;;;;;;;;;;;;;;;10555923;28;20121;-85
2022/11/28 14:32:54;;;;;;;7.75;3.35;;;;;;;;;;10554268;28;19904;-86
2022/11/28 14:37:56;;;;;;;5.85;3.65;;;;;;;;;;10556109;28;20043;-82
2022/11/28 14:43:27;;;;;;;5.93;4.00;;;;;;;;;;10555938;28;20028;-83
2022/11/28 14:48:29;;;;;;;4.95;3.97;;;;;;;;;;10540594;28;20489;-83
2022/11/28 14:53:33;;;;;;;6.47;4.57;;;;;;;;;;10561438;28;20055;-83
2022/11/28 14:58:35;;;;;;;5.28;4.07;;;;;;;;;;10561636;28;20028;-84
2022/11/28 15:03:40;;;;;;;5.60;3.70;;;;;;;;;;10564453;28;20104;-84
2022/11/28 15:08:47;;;;;;;5.03;3.33;;;;;;;;;;10560966;28;20020;-83
2022/11/28 15:14:07;;;;;;;4.90;3.42;;;;;;;;;;10559959;28;20119;-85
2022/11/28 15:19:14;;;;;;;5.97;4.20;;;;;;;;;;10569795;28;20367;-83
2022/11/28 15:24:26;;;;;;;4.72;3.80;;;;;;;;;;10575105;28;20109;-84
2022/11/28 15:29:27;;;;;;;3.70;3.17;;;;;;;;;;10570017;28;20016;-84
2022/11/28 15:34:30;;;;;;;4.60;3.40;;;;;;;;;;10567319;28;20062;-84
2022/11/28 15:39:38;;;;;;;6.60;3.70;;;;;;;;;;10570093;28;20024;-84
2022/11/28 15:44:41;;;;;;;6.40;3.58;;;;;;;;;;10566408;28;20024;-84
2022/11/28 15:49:42;;;;;;;5.43;3.85;;;;;;;;;;10569503;28;20478;-84
2022/11/28 15:54:44;;;;;;;6.13;4.57;;;;;;;;;;10559424;28;20044;-84
2022/11/28 15:59:45;;;;;;;3.97;3.42;;;;;;;;;;10554257;28;20048;-84
2022/11/28 16:04:46;;;;;;;4.45;3.47;;;;;;;;;;10552654;28;20063;-84
2022/11/28 16:09:55;;;;;;;4.68;3.65;;;;;;;;;;10556465;28;20026;-83
2022/11/28 16:15:00;;;;;;;6.43;3.88;;;;;;;;;;10554254;28;20031;-83
2022/11/28 16:20:02;;;;;;;5.38;4.40;;;;;;;;;;10555069;28;20020;-83
2022/11/28 16:25:11;;;;;;;7.07;4.18;;;;;;;;;;10553387;28;20068;-83
2022/11/28 16:30:31;;;;;;;6.53;4.10;;;;;;;;;;10556240;28;20115;-83
2022/11/28 16:35:36;;;;;;;6.25;4.40;;;;;;;;;;10555239;28;20054;-83
2022/11/28 16:40:37;;;;;;;4.68;3.40;;;;;;;;;;10567067;28;20028;-82
2022/11/28 16:45:38;;;;;;;6.28;4.15;;;;;;;;;;10555589;28;20028;-84
2022/11/28 16:50:46;;;;;;;4.93;3.63;;;;;;;;;;10552013;28;20020;-82
2022/11/28 16:55:48;;;;;;;5.75;3.95;;;;;;;;;;10554343;28;20040;-82
2022/11/28 17:01:00;;;;;;;5.97;4.68;;;;;;;;;;10556687;28;20439;-82
2022/11/28 17:06:01;;;;;;;5.63;4.60;;;;;;;;;;10562400;28;20032;-83
2022/11/28 17:11:02;;;;;;;5.18;4.03;;;;;;;;;;10557102;28;20069;-82
2022/11/28 17:16:07;;;;;;;7.22;3.50;;;;;;;;;;10561550;28;20028;-82
2022/11/28 17:21:10;;;;;;;5.45;4.00;;;;;;;;;;10556849;28;20397;-80
2022/11/28 17:26:13;;;;;;;7.45;4.72;;;;;;;;;;10556873;28;20028;-81
2022/11/28 17:31:14;;;;;;;8.77;4.32;;;;;;;;;;10552472;28;20082;-81
2022/11/28 17:36:15;;;;;;;5.53;3.88;;;;;;;;;;10551543;28;20102;-81
2022/11/28 17:41:17;;;;;;;4.72;3.90;;;;;;;;;;10552223;28;20107;-81
2022/11/28 17:46:20;;;;;;;5.70;4.25;;;;;;;;;;10550780;28;20059;-81
2022/11/28 17:51:21;;;;;;;8.00;4.25;;;;;;;;;;10551808;28;20063;-81
2022/11/28 17:56:22;;;;;;;6.75;4.07;;;;;;;;;;10551170;28;20036;-81
2022/11/28 18:01:26;;;;;;;5.22;4.07;;;;;;;;;;10561605;28;20024;-80
2022/11/28 18:06:27;;;;;;;5.22;3.90;;;;;;;;;;10564617;28;20031;-81
2022/11/28 18:11:28;;;;;;;5.93;3.90;;;;;;;;;;10547021;28;20026;-81
2022/11/28 18:16:29;;;;;;;4.93;3.63;;;;;;;;;;10547943;28;20028;-81
2022/11/28 18:21:32;;;;;;;5.40;4.35;;;;;;;;;;10546391;28;20107;-81
2022/11/28 18:26:34;;;;;;;5.65;3.80;;;;;;;;;;10545816;28;20077;-80
2022/11/28 18:31:35;;;;;;;5.38;4.35;;;;;;;;;;10546391;28;20020;-81
2022/11/28 18:36:37;;;;;;;5.18;4.03;;;;;;;;;;10545664;28;20020;-81
2022/11/28 18:41:39;;;;;;;4.78;4.10;;;;;;;;;;10546464;28;20035;-81
2022/11/28 18:46:40;;;;;;;5.55;4.13;;;;;;;;;;10545405;28;20024;-82
2022/11/28 18:51:41;;;;;;;5.15;4.28;;;;;;;;;;10547330;28;20020;-81
2022/11/28 18:56:42;;;;;;;4.90;3.67;;;;;;;;;;10547163;28;20111;-81
2022/11/28 19:01:43;;;;;;;5.50;4.53;;;;;;;;;;10547573;28;20095;-81
2022/11/28 19:06:45;;;;;;;6.03;4.80;;;;;;;;;;10548349;28;20016;-81
2022/11/28 19:11:46;;;;;;;4.82;3.90;;;;;;;;;;10548332;28;20055;-81
2022/11/28 19:16:48;;;;;;;6.38;4.93;;;;;;;;;;10551048;28;20035;-80
2022/11/28 19:21:49;;;;;;;4.00;3.58;;;;;;;;;;10574122;28;20024;-80
2022/11/28 19:26:50;;;;;;;4.85;3.67;;;;;;;;;;10554346;28;20028;-81
2022/11/28 19:31:51;;;;;;;4.95;4.10;;;;;;;;;;10546845;28;20099;-81
2022/11/28 19:36:53;;;;;;;4.82;4.10;;;;;;;;;;10547922;28;20070;-81
2022/11/28 19:41:55;;;;;;;5.70;5.07;;;;;;;;;;10548686;28;20028;-81
2022/11/28 19:47:12;;;;;;;4.50;3.83;;;;;;;;;;10547412;28;20047;-81
2022/11/28 19:52:13;;;;;;;4.10;3.63;;;;;;;;;;10546424;28;20056;-81
2022/11/28 19:57:14;;;;;;;4.00;3.47;;;;;;;;;;10547238;28;20060;-81
2022/11/28 20:02:16;;;;;;;4.30;3.85;;;;;;;;;;10553275;28;20039;-81
2022/11/28 20:07:17;;;;;;;4.20;3.78;;;;;;;;;;10555892;28;20028;-80
2022/11/28 20:12:18;;;;;;;3.70;3.20;;;;;;;;;;10555581;28;20043;-80
2022/11/28 20:17:22;;;;;;;3.85;3.10;;;;;;;;;;10555092;28;20482;-81
